createdAt,value
2023-05-04T00:00:50.074Z,8.51
2023-05-04T00:03:17.610Z,8.50
2023-05-04T00:05:45.133Z,8.45
2023-05-04T00:08:13.916Z,8.49
2023-05-04T00:10:41.512Z,8.53
2023-05-04T00:13:09.091Z,8.51
2023-05-04T00:15:37.279Z,8.50
2023-05-04T00:18:04.941Z,8.50
2023-05-04T00:20:32.475Z,8.43
2023-05-04T00:22:59.930Z,8.36
2023-05-04T00:25:28.725Z,8.29
2023-05-04T00:27:56.182Z,8.35
2023-05-04T00:30:23.939Z,8.49
2023-05-04T00:32:51.450Z,8.51
2023-05-04T00:35:19.057Z,8.49
2023-05-04T00:37:46.560Z,8.51
2023-05-04T00:40:14.225Z,8.46
2023-05-04T00:42:43.019Z,8.43
2023-05-04T00:45:11.502Z,8.29
2023-05-04T00:47:39.049Z,8.34
2023-05-04T00:50:07.871Z,8.25
2023-05-04T00:52:36.202Z,8.17
2023-05-04T00:55:05.271Z,8.11
2023-05-04T00:57:32.793Z,8.16
2023-05-04T01:00:01.692Z,8.18
2023-05-04T01:02:29.311Z,8.04
2023-05-04T01:04:56.863Z,7.92
2023-05-04T01:07:32.575Z,7.94
2023-05-04T01:10:05.663Z,7.88
2023-05-04T01:12:38.844Z,7.79
2023-05-04T01:15:10.381Z,7.72
2023-05-04T01:17:38.280Z,7.67
2023-05-04T01:20:07.316Z,7.58
2023-05-04T01:22:36.653Z,7.46
2023-05-04T01:25:04.605Z,7.53
2023-05-04T01:27:38.569Z,7.57
2023-05-04T01:30:09.993Z,7.56
2023-05-04T01:32:38.463Z,7.59
2023-05-04T01:35:07.275Z,7.59
2023-05-04T01:37:36.159Z,7.50
2023-05-04T01:40:04.467Z,7.45
2023-05-04T01:42:32.165Z,7.47
2023-05-04T01:44:59.639Z,7.38
2023-05-04T01:47:27.210Z,7.32
2023-05-04T01:49:54.690Z,7.35
2023-05-04T01:52:22.142Z,7.42
2023-05-04T01:54:50.957Z,7.42
2023-05-04T01:57:18.604Z,7.47
2023-05-04T01:59:46.123Z,7.47
2023-05-04T02:02:13.579Z,7.40
2023-05-04T02:04:41.328Z,7.25
2023-05-04T02:07:08.865Z,7.33
2023-05-04T02:09:36.754Z,7.34
2023-05-04T02:12:06.105Z,7.32
2023-05-04T02:14:33.588Z,7.22
2023-05-04T02:17:01.097Z,7.19
2023-05-04T02:19:28.632Z,7.09
2023-05-04T02:21:56.240Z,7.22
2023-05-04T02:24:23.717Z,7.15
2023-05-04T02:26:51.199Z,7.17
2023-05-04T02:29:20.018Z,6.94
2023-05-04T02:31:47.524Z,6.93
2023-05-04T02:34:15.034Z,6.87
2023-05-04T02:36:42.680Z,7.00
2023-05-04T02:39:10.204Z,6.95
2023-05-04T02:41:37.685Z,6.79
2023-05-04T02:44:05.551Z,6.74
2023-05-04T02:46:34.364Z,6.67
2023-05-04T02:49:01.854Z,6.88
2023-05-04T02:51:29.313Z,6.89
2023-05-04T02:53:56.808Z,6.83
2023-05-04T02:56:24.446Z,6.83
2023-05-04T02:58:51.992Z,6.84
2023-05-04T03:01:19.531Z,6.77
2023-05-04T03:03:48.387Z,6.82
2023-05-04T03:06:15.901Z,6.85
2023-05-04T03:08:43.363Z,6.80
2023-05-04T03:11:10.855Z,6.75
2023-05-04T03:13:38.318Z,6.61
2023-05-04T03:16:06.681Z,6.74
2023-05-04T03:18:34.494Z,6.97
2023-05-04T03:21:03.488Z,7.12
2023-05-04T03:23:30.930Z,7.21
2023-05-04T03:25:58.378Z,7.16
2023-05-04T03:28:25.853Z,7.25
2023-05-04T03:30:53.345Z,6.73
2023-05-04T03:33:20.805Z,6.49
2023-05-04T03:35:48.317Z,6.72
2023-05-04T03:38:17.097Z,6.56
2023-05-04T03:40:44.572Z,6.53
2023-05-04T03:43:12.054Z,6.62
2023-05-04T03:45:39.515Z,6.76
2023-05-04T03:48:07.151Z,6.52
2023-05-04T03:50:34.606Z,6.48
2023-05-04T03:53:02.137Z,6.55
2023-05-04T03:55:30.936Z,6.58
2023-05-04T03:57:58.743Z,7.06
2023-05-04T04:00:26.221Z,7.54
2023-05-04T04:02:53.844Z,7.49
2023-05-04T04:05:21.762Z,7.75
2023-05-04T04:07:49.239Z,8.16
2023-05-04T04:10:16.872Z,8.53
2023-05-04T04:12:45.735Z,9.00
2023-05-04T04:15:13.264Z,8.97
2023-05-04T04:17:41.156Z,9.41
2023-05-04T04:20:09.909Z,9.54
2023-05-04T04:22:37.516Z,10.16
2023-05-04T04:25:05.590Z,10.99
2023-05-04T04:27:33.042Z,11.52
2023-05-04T04:30:02.016Z,12.05
2023-05-04T04:32:29.610Z,12.65
2023-05-04T04:34:57.120Z,12.94
2023-05-04T04:37:24.598Z,13.52
2023-05-04T04:39:52.092Z,13.88
2023-05-04T04:42:19.552Z,14.18
2023-05-04T04:44:47.208Z,14.20
2023-05-04T04:47:16.608Z,13.68
2023-05-04T04:49:44.403Z,13.65
2023-05-04T04:52:12.342Z,13.37
2023-05-04T04:54:39.979Z,13.08
2023-05-04T04:57:07.588Z,12.89
2023-05-04T04:59:35.058Z,12.22
2023-05-04T05:02:02.915Z,12.38
2023-05-04T05:04:31.777Z,12.71
2023-05-04T05:06:59.629Z,13.15
2023-05-04T05:09:27.097Z,13.00
2023-05-04T05:11:54.588Z,13.20
2023-05-04T05:14:22.055Z,13.25
2023-05-04T05:16:50.171Z,13.57
2023-05-04T05:19:17.680Z,14.09
2023-05-04T05:21:47.458Z,14.91
2023-05-04T05:24:14.897Z,15.62
2023-05-04T05:26:42.489Z,16.45
2023-05-04T05:29:10.051Z,17.24
2023-05-04T05:31:37.477Z,17.44
2023-05-04T05:34:04.949Z,17.15
2023-05-04T05:36:32.624Z,16.83
2023-05-04T05:39:01.418Z,16.99
2023-05-04T05:41:28.889Z,17.31
2023-05-04T05:43:56.336Z,17.18
2023-05-04T05:46:24.996Z,16.54
2023-05-04T05:48:52.532Z,16.31
2023-05-04T05:51:20.017Z,16.09
2023-05-04T05:53:47.500Z,16.49
2023-05-04T05:56:16.322Z,16.80
2023-05-04T05:58:43.782Z,16.20
2023-05-04T06:01:11.267Z,16.35
2023-05-04T06:03:38.937Z,16.71
2023-05-04T06:06:06.680Z,16.85
2023-05-04T06:08:34.160Z,16.40
2023-05-04T06:11:01.612Z,16.27
2023-05-04T06:13:30.516Z,16.06
2023-05-04T06:15:58.073Z,16.15
2023-05-04T06:18:25.564Z,16.74
2023-05-04T06:20:58.906Z,17.45
2023-05-04T06:23:27.056Z,17.71
2023-05-04T06:25:54.525Z,17.74
2023-05-04T06:28:21.971Z,17.18
2023-05-04T06:30:50.844Z,18.22
2023-05-04T06:33:18.619Z,17.78
2023-05-04T06:35:46.147Z,18.66
2023-05-04T06:38:13.617Z,19.16
2023-05-04T06:40:41.173Z,19.37
2023-05-04T06:43:08.648Z,19.02
2023-05-04T06:45:36.208Z,20.76
2023-05-04T06:48:05.476Z,21.09
2023-05-04T06:50:33.527Z,22.19
2023-05-04T06:53:04.902Z,22.59
2023-05-04T06:55:32.726Z,24.02
2023-05-04T06:58:00.195Z,24.57
2023-05-04T07:00:28.203Z,24.09
2023-05-04T07:02:55.863Z,24.66
2023-05-04T07:05:25.176Z,25.15
2023-05-04T07:07:52.761Z,25.12
2023-05-04T07:10:20.293Z,23.19
2023-05-04T07:12:47.868Z,23.05
2023-05-04T07:15:15.831Z,21.78
2023-05-04T07:17:43.371Z,21.82
2023-05-04T07:20:12.005Z,22.59
2023-05-04T07:22:40.801Z,22.56
2023-05-04T07:25:09.208Z,22.00
2023-05-04T07:27:36.768Z,21.86
2023-05-04T07:30:06.504Z,21.20
2023-05-04T07:32:34.222Z,21.23
2023-05-04T07:35:01.669Z,21.43
2023-05-04T07:37:29.169Z,22.20
2023-05-04T07:40:00.148Z,22.85
2023-05-04T07:42:28.603Z,23.71
2023-05-04T07:44:56.250Z,23.24
2023-05-04T07:47:24.716Z,22.28
2023-05-04T07:49:52.276Z,21.91
2023-05-04T07:52:19.764Z,21.95
2023-05-04T07:54:47.242Z,22.00
2023-05-04T07:57:16.194Z,22.39
2023-05-04T07:59:43.669Z,22.63
2023-05-04T08:02:11.624Z,22.53
2023-05-04T08:04:39.352Z,21.72
2023-05-04T08:07:06.814Z,22.00
2023-05-04T08:09:34.282Z,21.55
2023-05-04T08:12:02.559Z,20.67
2023-05-04T08:14:31.399Z,20.72
2023-05-04T08:16:58.881Z,21.73
2023-05-04T08:19:26.467Z,21.86
2023-05-04T08:21:54.211Z,22.06
2023-05-04T08:24:21.753Z,22.46
2023-05-04T08:26:59.482Z,22.14
2023-05-04T08:29:33.173Z,22.07
2023-05-04T08:32:00.806Z,21.50
2023-05-04T08:34:28.338Z,21.93
2023-05-04T08:36:55.837Z,22.60
2023-05-04T08:39:23.338Z,22.58
2023-05-04T08:41:50.930Z,22.71
2023-05-04T08:44:19.061Z,22.30
2023-05-04T08:46:52.318Z,22.71
2023-05-04T08:49:20.368Z,23.08
2023-05-04T08:51:49.364Z,23.44
2023-05-04T08:54:17.706Z,23.20
2023-05-04T08:56:46.317Z,23.66
2023-05-04T08:59:20.438Z,23.93
2023-05-04T09:01:54.196Z,23.15
2023-05-04T09:04:22.319Z,23.03
2023-05-04T09:06:50.358Z,23.20
2023-05-04T09:09:18.038Z,23.46
2023-05-04T09:11:45.675Z,22.74
2023-05-04T09:14:13.161Z,22.50
2023-05-04T09:16:40.861Z,23.25
2023-05-04T09:19:20.211Z,24.26
2023-05-04T09:21:49.246Z,24.08
2023-05-04T09:24:26.665Z,24.32
2023-05-04T09:26:54.200Z,24.09
2023-05-04T09:29:22.393Z,22.97
2023-05-04T09:31:51.222Z,22.77
2023-05-04T09:34:20.469Z,23.53
2023-05-04T09:36:59.209Z,23.38
2023-05-04T09:39:26.801Z,23.55
2023-05-04T09:41:54.320Z,23.29
2023-05-04T09:44:23.268Z,23.31
2023-05-04T09:46:55.608Z,23.66
2023-05-04T09:49:34.372Z,24.86
2023-05-04T09:52:03.228Z,25.44
2023-05-04T09:54:32.377Z,25.06
2023-05-04T09:57:06.450Z,24.27
2023-05-04T09:59:34.389Z,23.94
2023-05-04T10:02:07.652Z,23.26
2023-05-04T10:04:47.620Z,22.92
2023-05-04T10:07:15.248Z,22.70
2023-05-04T10:09:42.877Z,23.53
2023-05-04T10:12:10.322Z,23.78
2023-05-04T10:14:37.924Z,23.84
2023-05-04T10:17:15.353Z,23.64
2023-05-04T10:19:58.873Z,24.67
2023-05-04T10:22:40.783Z,25.08
2023-05-04T10:25:33.628Z,23.69
2023-05-04T10:28:07.614Z,23.38
2023-05-04T10:30:35.351Z,23.56
2023-05-04T10:33:03.109Z,24.33
2023-05-04T10:35:32.858Z,23.54
2023-05-04T10:38:00.740Z,23.52
2023-05-04T10:40:36.463Z,23.81
2023-05-04T10:43:04.429Z,24.55
2023-05-04T10:45:39.261Z,24.39
2023-05-04T10:48:07.745Z,23.56
2023-05-04T10:50:47.310Z,23.86
2023-05-04T10:53:15.956Z,23.92
2023-05-04T10:55:44.903Z,24.75
2023-05-04T10:58:16.506Z,25.79
2023-05-04T11:00:46.110Z,25.17
2023-05-04T11:03:14.294Z,24.79
2023-05-04T11:05:43.443Z,24.90
2023-05-04T11:08:19.851Z,24.50
2023-05-04T11:10:48.444Z,23.75
2023-05-04T11:13:16.767Z,23.24
2023-05-04T11:15:48.358Z,23.15
2023-05-04T11:18:17.937Z,24.31
2023-05-04T11:20:46.542Z,25.45
2023-05-04T11:23:17.039Z,25.47
2023-05-04T11:25:46.005Z,25.82
2023-05-04T11:28:14.207Z,24.81
2023-05-04T11:30:44.457Z,24.96
2023-05-04T11:33:13.838Z,25.53
2023-05-04T11:35:42.409Z,25.50
2023-05-04T11:38:10.257Z,25.39
2023-05-04T11:40:41.024Z,26.25
2023-05-04T11:43:12.615Z,26.12
2023-05-04T11:45:42.467Z,25.55
2023-05-04T11:48:10.617Z,25.79
2023-05-04T11:50:38.740Z,25.69
2023-05-04T11:53:08.879Z,25.82
2023-05-04T11:55:37.962Z,26.11
2023-05-04T11:58:06.931Z,26.93
2023-05-04T12:00:40.763Z,27.31
2023-05-04T12:03:09.829Z,27.57
2023-05-04T12:05:38.136Z,27.54
2023-05-04T12:08:07.296Z,26.75
2023-05-04T12:10:35.168Z,26.12
2023-05-04T12:13:02.938Z,25.63
2023-05-04T12:15:32.305Z,25.42
2023-05-04T12:18:03.016Z,26.12
2023-05-04T12:20:31.976Z,26.25
2023-05-04T12:23:06.330Z,25.90
2023-05-04T12:25:34.506Z,25.36
2023-05-04T12:28:04.673Z,25.10
2023-05-04T12:30:32.252Z,25.00
2023-05-04T12:33:01.280Z,25.76
2023-05-04T12:35:28.785Z,25.62
2023-05-04T12:37:56.614Z,25.27
2023-05-04T12:40:28.696Z,25.53
2023-05-04T12:42:56.680Z,25.54
2023-05-04T12:45:24.141Z,25.40
2023-05-04T12:47:51.622Z,25.33
2023-05-04T12:50:20.545Z,25.45
2023-05-04T12:52:48.083Z,25.53
2023-05-04T12:55:15.581Z,25.55
2023-05-04T12:57:44.836Z,25.68
2023-05-04T13:00:13.516Z,25.65
2023-05-04T13:02:41.148Z,26.29
2023-05-04T13:05:09.282Z,26.66
2023-05-04T13:07:38.068Z,26.88
2023-05-04T13:10:06.328Z,26.49
2023-05-04T13:12:33.940Z,26.25
2023-05-04T13:15:01.510Z,26.70
2023-05-04T13:17:30.596Z,26.88
2023-05-04T13:19:58.045Z,26.71
2023-05-04T13:22:25.720Z,26.49
2023-05-04T13:24:54.637Z,26.16
2023-05-04T13:27:22.389Z,26.33
2023-05-04T13:29:49.929Z,26.81
2023-05-04T13:32:17.460Z,26.48
2023-05-04T13:34:45.076Z,26.51
2023-05-04T13:37:18.159Z,26.18
2023-05-04T13:39:46.166Z,26.15
2023-05-04T13:42:15.096Z,26.11
2023-05-04T13:44:44.743Z,26.05
2023-05-04T13:47:13.166Z,25.89
2023-05-04T13:49:40.866Z,25.88
2023-05-04T13:52:08.409Z,25.86
2023-05-04T13:54:36.315Z,26.71
2023-05-04T13:57:04.435Z,26.28
2023-05-04T13:59:34.121Z,26.45
2023-05-04T14:02:01.741Z,27.20
2023-05-04T14:04:29.437Z,27.74
2023-05-04T14:06:57.613Z,27.87
2023-05-04T14:09:26.523Z,28.08
2023-05-04T14:11:54.483Z,27.67
2023-05-04T14:14:22.429Z,26.45
2023-05-04T14:16:51.277Z,26.38
2023-05-04T14:19:18.820Z,26.62
2023-05-04T14:21:46.717Z,27.05
2023-05-04T14:24:14.273Z,26.79
2023-05-04T14:26:41.759Z,26.26
2023-05-04T14:29:09.228Z,26.11
2023-05-04T14:31:36.693Z,26.32
2023-05-04T14:34:05.482Z,27.01
2023-05-04T14:36:32.943Z,27.52
2023-05-04T14:39:02.794Z,26.65
2023-05-04T14:41:33.598Z,25.93
2023-05-04T14:44:01.442Z,25.38
2023-05-04T14:46:30.949Z,25.37
2023-05-04T14:48:58.679Z,25.31
2023-05-04T14:51:27.935Z,25.37
2023-05-04T14:53:55.447Z,24.90
2023-05-04T14:56:23.192Z,24.08
2023-05-04T14:58:50.728Z,24.01
2023-05-04T15:01:18.208Z,24.69
2023-05-04T15:03:45.799Z,25.35
2023-05-04T15:06:13.699Z,25.73
2023-05-04T15:08:42.501Z,25.98
2023-05-04T15:11:09.957Z,25.85
2023-05-04T15:13:37.426Z,26.21
2023-05-04T15:16:05.440Z,25.85
2023-05-04T15:18:32.941Z,24.83
2023-05-04T15:21:00.378Z,24.58
2023-05-04T15:23:27.950Z,23.99
2023-05-04T15:25:56.827Z,23.77
2023-05-04T15:28:26.008Z,23.47
2023-05-04T15:30:53.472Z,23.77
2023-05-04T15:33:21.574Z,24.18
2023-05-04T15:35:49.037Z,24.56
2023-05-04T15:38:16.585Z,24.43
2023-05-04T15:40:44.041Z,24.15
2023-05-04T15:43:12.924Z,24.10
2023-05-04T15:45:40.535Z,23.90
2023-05-04T15:48:08.115Z,23.57
2023-05-04T15:50:35.624Z,23.60
2023-05-04T15:53:03.468Z,23.34
2023-05-04T15:55:31.055Z,22.96
2023-05-04T15:57:58.745Z,22.94
2023-05-04T16:00:28.113Z,23.13
2023-05-04T16:02:56.496Z,23.06
2023-05-04T16:05:24.874Z,23.25
2023-05-04T16:07:52.517Z,23.45
2023-05-04T16:10:20.825Z,23.52
2023-05-04T16:12:48.616Z,23.58
2023-05-04T16:15:16.318Z,23.73
2023-05-04T16:17:45.103Z,23.51
2023-05-04T16:20:12.841Z,22.96
2023-05-04T16:22:40.297Z,22.90
2023-05-04T16:25:10.323Z,22.95
2023-05-04T16:27:38.893Z,23.30
2023-05-04T16:30:07.784Z,23.69
2023-05-04T16:32:35.542Z,23.87
2023-05-04T16:35:04.781Z,23.75
2023-05-04T16:37:32.246Z,24.27
2023-05-04T16:39:59.704Z,24.23
2023-05-04T16:42:27.254Z,24.06
2023-05-04T16:44:54.717Z,23.95
2023-05-04T16:47:22.237Z,23.52
2023-05-04T16:49:49.712Z,23.35
2023-05-04T16:52:18.493Z,23.08
2023-05-04T16:54:45.934Z,22.92
2023-05-04T16:57:13.396Z,22.80
2023-05-04T16:59:40.859Z,22.75
2023-05-04T17:02:08.894Z,22.93
2023-05-04T17:04:36.474Z,22.99
2023-05-04T17:07:03.973Z,23.04
2023-05-04T17:09:32.755Z,22.72
2023-05-04T17:12:00.949Z,22.20
2023-05-04T17:14:28.442Z,22.03
2023-05-04T17:16:55.898Z,21.90
2023-05-04T17:19:23.348Z,21.91
2023-05-04T17:21:50.814Z,21.66
2023-05-04T17:24:18.713Z,22.26
2023-05-04T17:26:47.501Z,22.31
2023-05-04T17:29:15.001Z,22.46
2023-05-04T17:31:42.504Z,22.57
2023-05-04T17:34:09.979Z,22.73
2023-05-04T17:36:37.591Z,22.75
2023-05-04T17:39:05.117Z,22.69
2023-05-04T17:41:32.707Z,22.78
2023-05-04T17:44:01.608Z,22.60
2023-05-04T17:46:29.811Z,22.28
2023-05-04T17:48:57.449Z,21.83
2023-05-04T17:51:24.927Z,22.02
2023-05-04T17:53:52.382Z,21.91
2023-05-04T17:56:21.235Z,21.87
2023-05-04T17:58:48.739Z,21.77
2023-05-04T18:01:17.777Z,21.53
2023-05-04T18:03:45.337Z,21.43
2023-05-04T18:06:12.926Z,21.02
2023-05-04T18:08:40.446Z,20.86
2023-05-04T18:11:07.918Z,20.75
2023-05-04T18:13:35.444Z,20.66
2023-05-04T18:16:02.960Z,20.44
2023-05-04T18:18:31.838Z,20.19
2023-05-04T18:21:00.599Z,19.94
2023-05-04T18:23:29.062Z,19.81
2023-05-04T18:25:56.532Z,19.64
2023-05-04T18:28:24.003Z,19.47
2023-05-04T18:30:51.497Z,19.30
2023-05-04T18:33:18.943Z,18.92
2023-05-04T18:35:47.908Z,18.57
2023-05-04T18:38:16.203Z,18.44
2023-05-04T18:40:43.685Z,18.29
2023-05-04T18:43:11.245Z,18.13
2023-05-04T18:45:38.735Z,17.95
2023-05-04T18:48:06.616Z,17.72
2023-05-04T18:50:34.114Z,17.59
2023-05-04T18:53:05.219Z,17.42
2023-05-04T18:55:32.694Z,17.27
2023-05-04T18:58:00.988Z,17.12
2023-05-04T19:00:28.644Z,16.95
2023-05-04T19:02:58.080Z,16.79
2023-05-04T19:05:25.896Z,16.65
2023-05-04T19:07:53.394Z,16.42
2023-05-04T19:10:22.173Z,16.36
2023-05-04T19:12:51.730Z,16.14
2023-05-04T19:15:19.673Z,15.93
2023-05-04T19:17:47.168Z,15.76
2023-05-04T19:20:16.240Z,15.74
2023-05-04T19:22:44.690Z,15.72
2023-05-04T19:25:20.352Z,15.67
2023-05-04T19:27:56.076Z,15.47
2023-05-04T19:30:23.526Z,15.36
2023-05-04T19:32:51.217Z,14.94
2023-05-04T19:35:18.978Z,14.65
2023-05-04T19:37:47.233Z,14.40
2023-05-04T19:40:14.772Z,14.90
2023-05-04T19:42:45.994Z,14.96
2023-05-04T19:45:15.636Z,14.77
2023-05-04T19:47:43.192Z,14.63
2023-05-04T19:50:11.500Z,14.46
2023-05-04T19:52:39.238Z,14.35
2023-05-04T19:55:07.715Z,14.22
2023-05-04T19:57:35.547Z,14.11
2023-05-04T20:00:03.182Z,13.95
2023-05-04T20:02:32.391Z,13.80
2023-05-04T20:04:59.972Z,13.96
2023-05-04T20:07:27.611Z,14.03
2023-05-04T20:09:55.525Z,14.01
2023-05-04T20:12:23.035Z,13.92
2023-05-04T20:14:50.916Z,13.72
2023-05-04T20:17:18.405Z,13.67
2023-05-04T20:19:48.130Z,13.61
2023-05-04T20:22:15.773Z,13.47
2023-05-04T20:24:43.574Z,13.29
2023-05-04T20:27:11.059Z,12.96
2023-05-04T20:29:38.590Z,13.01
2023-05-04T20:32:07.260Z,13.16
2023-05-04T20:34:35.633Z,12.98
2023-05-04T20:37:04.448Z,12.53
2023-05-04T20:39:32.307Z,12.36
2023-05-04T20:42:00.280Z,12.82
2023-05-04T20:44:27.894Z,12.98
2023-05-04T20:46:55.373Z,12.85
2023-05-04T20:49:22.881Z,12.87
2023-05-04T20:51:50.370Z,12.90
2023-05-04T20:54:19.186Z,12.93
2023-05-04T20:56:46.678Z,12.85
2023-05-04T20:59:14.185Z,12.86
2023-05-04T21:01:41.695Z,12.82
2023-05-04T21:04:09.254Z,12.65
2023-05-04T21:06:36.738Z,12.61
2023-05-04T21:09:04.728Z,12.61
2023-05-04T21:11:33.731Z,12.57
2023-05-04T21:14:01.217Z,12.50
2023-05-04T21:16:28.683Z,12.50
2023-05-04T21:18:56.195Z,12.50
2023-05-04T21:21:23.648Z,12.38
2023-05-04T21:23:51.275Z,12.23
2023-05-04T21:26:18.710Z,12.23
2023-05-04T21:28:47.509Z,12.23
2023-05-04T21:31:15.105Z,12.15
2023-05-04T21:33:42.594Z,12.07
2023-05-04T21:36:14.057Z,11.98
2023-05-04T21:38:41.772Z,11.92
2023-05-04T21:41:13.697Z,11.87
2023-05-04T21:43:41.844Z,11.82
2023-05-04T21:46:11.940Z,11.67
2023-05-04T21:48:40.174Z,11.26
2023-05-04T21:51:07.910Z,11.28
2023-05-04T21:53:35.459Z,11.35
2023-05-04T21:56:07.465Z,11.67
2023-05-04T21:58:35.042Z,11.83
2023-05-04T22:01:03.382Z,11.81
2023-05-04T22:03:32.443Z,11.80
2023-05-04T22:06:00.248Z,11.76
2023-05-04T22:08:29.087Z,11.70
2023-05-04T22:10:58.461Z,11.64
2023-05-04T22:13:26.368Z,11.48
2023-05-04T22:15:54.564Z,11.31
2023-05-04T22:18:22.269Z,11.49
2023-05-04T22:20:51.108Z,11.61
2023-05-04T22:23:18.818Z,11.56
2023-05-04T22:25:46.278Z,11.11
2023-05-04T22:28:13.781Z,10.32
2023-05-04T22:30:41.381Z,10.13
2023-05-04T22:33:08.886Z,10.35
2023-05-04T22:35:36.349Z,11.02
2023-05-04T22:38:05.429Z,11.20
2023-05-04T22:40:33.174Z,11.25
2023-05-04T22:43:00.670Z,11.35
2023-05-04T22:45:31.935Z,11.22
2023-05-04T22:47:59.440Z,11.26
2023-05-04T22:50:28.088Z,11.03
2023-05-04T22:52:55.625Z,11.08
2023-05-04T22:55:24.700Z,11.12
2023-05-04T22:57:52.219Z,11.19
2023-05-04T23:00:20.786Z,11.17
2023-05-04T23:02:48.365Z,11.20
2023-05-04T23:05:16.045Z,11.12
2023-05-04T23:07:43.586Z,10.53
2023-05-04T23:10:11.430Z,10.28
2023-05-04T23:12:40.236Z,10.59
2023-05-04T23:15:09.151Z,10.88
2023-05-04T23:17:38.464Z,10.94
2023-05-04T23:20:07.904Z,10.88
2023-05-04T23:22:36.135Z,10.60
2023-05-04T23:25:04.230Z,10.71
2023-05-04T23:27:31.663Z,10.65
2023-05-04T23:30:00.433Z,10.63
2023-05-04T23:32:27.908Z,10.53
2023-05-04T23:34:55.429Z,10.44
2023-05-04T23:37:23.137Z,10.53
2023-05-04T23:39:50.624Z,10.60
2023-05-04T23:42:18.089Z,10.62
2023-05-04T23:44:45.613Z,10.50
2023-05-04T23:47:14.438Z,10.39
2023-05-04T23:49:41.917Z,10.27
2023-05-04T23:52:09.404Z,10.39
2023-05-04T23:54:36.852Z,10.41
2023-05-04T23:57:05.004Z,10.01
2023-05-04T23:59:32.711Z,9.89
